Terminal Aerodrome Forecast
Issued by NWS

Home | Current Version | Previous Version | Text Only | Print | Product List | Glossary On
Versions: 1 2 3 4 5 6 7 8 9 10 11 12 13 14 15 16 17
667
FTUS43 KMPX 260541
TAFRNH
TAF
KRNH 260541Z 2606/2706 15004KT P6SM BKN080
     FM261500 16007KT P6SM SCT045 SCT150
     FM262000 22006KT P6SM SCT045 PROB30 2620/2624 -TSRA BKN035CB
     FM270200 25003KT P6SM SKC=

USA.gov is the U.S. government's official web portal to all federal, state and local government web resources and services.